Time;durP1;ratioP1;P1;durP2;ratioP2;P2;SDS_P1;SDS_P2;PMS_P1;PMS_P2;Temp;Humidity;BMP_temperature;BMP_pressure;BME280_temperature;BME280_humidity;BME280_pressure;Samples;Min_cycle;Max_cycle;Signal;HPM_P1;HPM_P2
2022/12/18 00:01:18;;;;;;;9.30;5.70;;;;;;;;;;5003812;28;20673;-39
2022/12/18 00:03:45;;;;;;;6.00;4.35;;;;;;;;;;5004715;28;20204;-40
2022/12/18 00:06:11;;;;;;;10.57;4.70;;;;;;;;;;5006346;28;20611;-39
2022/12/18 00:08:37;;;;;;;6.50;4.80;;;;;;;;;;5006254;28;20173;-39
2022/12/18 00:11:04;;;;;;;6.75;4.43;;;;;;;;;;5000317;28;20304;-40
2022/12/18 00:13:30;;;;;;;5.80;4.38;;;;;;;;;;4998878;28;20201;-39
2022/12/18 00:16:01;;;;;;;7.23;4.50;;;;;;;;;;5005366;28;20187;-40
2022/12/18 00:18:27;;;;;;;5.63;4.13;;;;;;;;;;5004485;28;20435;-40
2022/12/18 00:20:53;;;;;;;5.53;4.93;;;;;;;;;;5005150;28;20313;-40
2022/12/18 00:23:19;;;;;;;6.40;4.80;;;;;;;;;;5003483;28;20443;-40
2022/12/18 00:25:45;;;;;;;5.23;4.73;;;;;;;;;;5004315;28;20407;-40
2022/12/18 00:28:11;;;;;;;7.60;6.33;;;;;;;;;;4999133;28;20415;-40
2022/12/18 00:30:37;;;;;;;10.97;5.03;;;;;;;;;;5005646;28;20419;-41
2022/12/18 00:33:03;;;;;;;7.43;4.40;;;;;;;;;;5003097;28;20427;-39
2022/12/18 00:35:29;;;;;;;5.53;4.38;;;;;;;;;;5002043;28;20412;-39
2022/12/18 00:37:55;;;;;;;6.67;4.87;;;;;;;;;;5004071;28;20187;-39
2022/12/18 00:40:21;;;;;;;6.00;4.23;;;;;;;;;;5002501;28;20908;-40
2022/12/18 00:42:56;;;;;;;5.03;4.43;;;;;;;;;;5002356;28;20802;-40
2022/12/18 00:45:29;;;;;;;7.13;4.68;;;;;;;;;;5002292;28;20411;-40
2022/12/18 00:47:55;;;;;;;5.40;4.90;;;;;;;;;;5007092;28;20234;-40
2022/12/18 00:50:22;;;;;;;6.60;5.28;;;;;;;;;;5003929;28;20180;-40
2022/12/18 00:52:48;;;;;;;4.50;3.65;;;;;;;;;;4999191;28;20259;-39
2022/12/18 00:55:14;;;;;;;6.50;3.83;;;;;;;;;;5000557;28;20181;-39
2022/12/18 00:57:40;;;;;;;8.45;4.78;;;;;;;;;;5002440;28;20642;-39
2022/12/18 01:00:07;;;;;;;5.88;4.43;;;;;;;;;;5005512;28;20211;-39
2022/12/18 01:02:33;;;;;;;4.25;3.65;;;;;;;;;;5002729;28;20231;-40
2022/12/18 01:04:59;;;;;;;4.20;3.37;;;;;;;;;;5005459;28;20637;-40
2022/12/18 01:07:25;;;;;;;5.60;4.17;;;;;;;;;;5002275;28;20415;-41
2022/12/18 01:09:51;;;;;;;7.37;5.20;;;;;;;;;;4997375;28;20442;-40
2022/12/18 01:12:17;;;;;;;5.07;4.57;;;;;;;;;;5004411;28;20408;-39
2022/12/18 01:14:43;;;;;;;6.13;4.47;;;;;;;;;;5002060;28;20412;-39
2022/12/18 01:17:09;;;;;;;4.50;3.50;;;;;;;;;;5004116;28;20470;-39
2022/12/18 01:19:35;;;;;;;5.70;4.30;;;;;;;;;;5001864;28;20404;-39
2022/12/18 01:22:01;;;;;;;6.72;4.57;;;;;;;;;;4999606;28;20518;-39
2022/12/18 01:24:27;;;;;;;4.27;3.90;;;;;;;;;;5000855;28;20179;-39
2022/12/18 01:26:53;;;;;;;5.27;4.77;;;;;;;;;;5002200;28;20433;-40
2022/12/18 01:29:19;;;;;;;6.00;4.50;;;;;;;;;;5004607;28;20407;-41
2022/12/18 01:31:45;;;;;;;10.83;4.00;;;;;;;;;;5000590;28;20412;-41
2022/12/18 01:34:11;;;;;;;4.93;4.43;;;;;;;;;;5002332;28;20494;-39
2022/12/18 01:36:38;;;;;;;6.87;4.90;;;;;;;;;;5001448;28;20404;-40
2022/12/18 01:39:10;;;;;;;5.63;4.22;;;;;;;;;;5001710;28;20448;-39
2022/12/18 01:44:40;;;;;;;5.60;4.18;;;;;;;;;;5004033;28;20560;-40
2022/12/18 01:47:06;;;;;;;5.30;4.80;;;;;;;;;;4997907;28;20260;-39
2022/12/18 01:49:32;;;;;;;4.97;4.47;;;;;;;;;;5002877;28;20289;-39
2022/12/18 01:51:58;;;;;;;5.77;4.83;;;;;;;;;;4996984;28;20418;-40
2022/12/18 01:54:23;;;;;;;5.13;4.40;;;;;;;;;;5004349;28;20439;-40
2022/12/18 01:56:49;;;;;;;6.90;4.60;;;;;;;;;;5000068;28;20507;-40
2022/12/18 01:59:16;;;;;;;5.90;4.67;;;;;;;;;;5001122;28;20416;-40
2022/12/18 02:01:42;;;;;;;6.35;4.80;;;;;;;;;;5000069;28;20934;-42
2022/12/18 02:04:34;;;;;;;9.95;4.40;;;;;;;;;;4999632;28;20546;-42
2022/12/18 02:07:26;;;;;;;5.70;4.32;;;;;;;;;;4997873;28;20258;-40
2022/12/18 02:10:10;;;;;;;5.30;4.60;;;;;;;;;;5002644;28;20232;-39
2022/12/18 02:12:49;;;;;;;6.82;3.95;;;;;;;;;;5003806;28;20254;-40
2022/12/18 02:15:18;;;;;;;5.93;5.00;;;;;;;;;;5002844;28;20211;-40
2022/12/18 02:17:49;;;;;;;7.95;3.97;;;;;;;;;;4999816;28;20177;-42
2022/12/18 02:20:22;;;;;;;5.05;3.97;;;;;;;;;;5000386;28;20222;-42
2022/12/18 02:23:08;;;;;;;6.60;4.97;;;;;;;;;;5000534;28;20196;-41
2022/12/18 02:25:52;;;;;;;5.20;4.00;;;;;;;;;;4999088;28;20256;-41
2022/12/18 02:28:20;;;;;;;5.75;3.95;;;;;;;;;;4994734;28;20224;-41
2022/12/18 02:30:48;;;;;;;4.60;4.22;;;;;;;;;;5001985;28;20204;-41
2022/12/18 02:33:15;;;;;;;7.40;5.10;;;;;;;;;;5001836;28;20709;-42
2022/12/18 02:35:41;;;;;;;4.88;4.00;;;;;;;;;;5002194;28;20211;-41
2022/12/18 02:38:07;;;;;;;4.68;3.85;;;;;;;;;;4996719;28;20238;-42
2022/12/18 02:40:34;;;;;;;5.68;4.65;;;;;;;;;;4991014;28;20735;-42
2022/12/18 02:43:07;;;;;;;4.32;3.92;;;;;;;;;;4995270;28;20207;-42
2022/12/18 02:45:33;;;;;;;4.50;4.10;;;;;;;;;;5003614;28;20650;-42
2022/12/18 02:47:59;;;;;;;5.67;4.90;;;;;;;;;;4999759;28;20181;-42
2022/12/18 02:50:29;;;;;;;6.67;4.83;;;;;;;;;;5000094;28;20969;-42
2022/12/18 02:52:58;;;;;;;5.53;4.65;;;;;;;;;;5001623;28;20454;-41
2022/12/18 02:55:27;;;;;;;5.47;4.30;;;;;;;;;;5000208;28;20542;-41
2022/12/18 02:58:00;;;;;;;4.88;4.20;;;;;;;;;;5002250;28;20181;-42
2022/12/18 03:00:38;;;;;;;4.13;3.83;;;;;;;;;;5002834;28;20200;-41
2022/12/18 03:03:10;;;;;;;7.60;4.70;;;;;;;;;;4995954;28;20196;-41
2022/12/18 03:05:41;;;;;;;4.68;4.35;;;;;;;;;;5003107;28;20176;-42
2022/12/18 03:08:09;;;;;;;7.90;5.15;;;;;;;;;;4997644;28;20176;-42
2022/12/18 03:10:37;;;;;;;8.27;5.30;;;;;;;;;;5003529;28;20198;-42
2022/12/18 03:13:31;;;;;;;5.57;4.97;;;;;;;;;;4994159;28;20322;-42
2022/12/18 03:15:58;;;;;;;5.32;4.25;;;;;;;;;;4999938;28;20172;-42
2022/12/18 03:18:43;;;;;;;5.45;4.75;;;;;;;;;;4999975;28;20553;-42
2022/12/18 03:21:10;;;;;;;5.53;4.25;;;;;;;;;;4993056;28;20204;-42
2022/12/18 03:23:40;;;;;;;6.68;4.63;;;;;;;;;;4999919;28;20177;-42
2022/12/18 03:26:09;;;;;;;5.05;4.38;;;;;;;;;;4999530;28;20169;-42
2022/12/18 03:28:38;;;;;;;6.55;4.78;;;;;;;;;;4999923;28;20238;-42
2022/12/18 03:31:05;;;;;;;5.32;4.03;;;;;;;;;;4995775;28;20172;-41
2022/12/18 03:33:44;;;;;;;5.35;4.85;;;;;;;;;;5000084;28;20663;-41
2022/12/18 03:36:10;;;;;;;5.35;4.10;;;;;;;;;;4997224;28;20180;-41
2022/12/18 03:38:36;;;;;;;6.50;4.72;;;;;;;;;;5003792;28;20173;-41
2022/12/18 03:41:11;;;;;;;6.97;4.88;;;;;;;;;;5006677;28;20200;-41
2022/12/18 03:43:51;;;;;;;6.38;3.92;;;;;;;;;;5003625;28;20315;-40
2022/12/18 03:46:23;;;;;;;6.82;4.57;;;;;;;;;;4997496;28;20200;-39
2022/12/18 03:48:52;;;;;;;7.35;4.47;;;;;;;;;;5003530;28;20210;-40
2022/12/18 03:51:23;;;;;;;6.90;4.45;;;;;;;;;;5003425;28;20750;-40
2022/12/18 03:53:58;;;;;;;5.82;4.22;;;;;;;;;;5008267;28;20304;-41
2022/12/18 03:56:26;;;;;;;6.35;4.32;;;;;;;;;;5004902;28;20668;-40
2022/12/18 03:58:53;;;;;;;5.55;4.00;;;;;;;;;;5000491;28;20569;-40
2022/12/18 04:01:20;;;;;;;6.90;5.38;;;;;;;;;;5000822;28;20255;-40
2022/12/18 04:03:49;;;;;;;5.65;4.75;;;;;;;;;;5004532;28;20562;-39
2022/12/18 04:06:15;;;;;;;5.32;4.75;;;;;;;;;;5006055;28;20164;-39
2022/12/18 04:08:41;;;;;;;4.55;4.15;;;;;;;;;;5004018;28;20169;-40
2022/12/18 04:11:07;;;;;;;4.85;4.45;;;;;;;;;;5009545;28;20187;-39
2022/12/18 04:13:35;;;;;;;10.80;4.03;;;;;;;;;;5006321;28;20275;-40
2022/12/18 04:16:01;;;;;;;8.20;4.50;;;;;;;;;;4990496;28;20420;-39
2022/12/18 04:18:27;;;;;;;6.33;4.23;;;;;;;;;;5006178;28;20186;-40
2022/12/18 04:20:53;;;;;;;4.13;3.83;;;;;;;;;;5003230;28;20459;-41
2022/12/18 04:23:19;;;;;;;4.23;3.80;;;;;;;;;;5004108;28;20555;-40
2022/12/18 04:25:46;;;;;;;4.00;3.70;;;;;;;;;;5003959;28;20405;-42
2022/12/18 04:28:12;;;;;;;6.82;4.90;;;;;;;;;;5002967;28;20412;-41
2022/12/18 04:30:38;;;;;;;5.27;3.80;;;;;;;;;;5002887;28;20195;-40
2022/12/18 04:33:03;;;;;;;4.47;4.17;;;;;;;;;;5002561;28;20435;-41
2022/12/18 04:35:30;;;;;;;7.40;4.30;;;;;;;;;;5007158;28;20421;-39
2022/12/18 04:37:56;;;;;;;4.60;3.85;;;;;;;;;;5001227;28;20829;-39
2022/12/18 04:40:22;;;;;;;7.63;4.03;;;;;;;;;;5001695;28;20203;-40
2022/12/18 04:42:48;;;;;;;5.32;4.22;;;;;;;;;;5002735;28;20503;-39
2022/12/18 04:45:14;;;;;;;5.20;4.47;;;;;;;;;;5002338;28;20165;-39
2022/12/18 04:47:39;;;;;;;4.55;3.70;;;;;;;;;;5002531;28;20893;-40
2022/12/18 04:50:06;;;;;;;7.47;4.07;;;;;;;;;;5004642;28;20181;-40
2022/12/18 04:52:32;;;;;;;3.72;3.40;;;;;;;;;;4991538;28;20558;-40
2022/12/18 04:54:58;;;;;;;4.40;3.85;;;;;;;;;;5002436;28;20267;-40
2022/12/18 04:57:24;;;;;;;4.47;4.07;;;;;;;;;;5000518;28;20181;-39
2022/12/18 04:59:50;;;;;;;4.90;3.77;;;;;;;;;;5003425;28;20250;-40
2022/12/18 05:02:16;;;;;;;3.77;3.43;;;;;;;;;;5004775;28;20459;-40
2022/12/18 05:04:42;;;;;;;6.00;3.63;;;;;;;;;;5000635;28;20827;-39
2022/12/18 05:07:07;;;;;;;4.73;4.00;;;;;;;;;;5002714;28;20438;-39
2022/12/18 05:09:33;;;;;;;7.00;4.10;;;;;;;;;;5004785;28;20403;-40
2022/12/18 05:11:59;;;;;;;5.00;3.45;;;;;;;;;;5001852;28;20494;-40
2022/12/18 05:14:27;;;;;;;7.00;4.03;;;;;;;;;;5001661;28;20181;-40
2022/12/18 05:16:53;;;;;;;5.30;4.60;;;;;;;;;;5006692;28;20415;-40
2022/12/18 05:19:19;;;;;;;7.50;3.97;;;;;;;;;;5003195;28;20684;-41
2022/12/18 05:21:45;;;;;;;4.43;4.00;;;;;;;;;;4998850;28;20817;-41
2022/12/18 05:24:11;;;;;;;4.90;4.07;;;;;;;;;;5000547;28;20371;-40
2022/12/18 05:26:37;;;;;;;4.53;4.15;;;;;;;;;;5001484;28;20491;-40
2022/12/18 05:29:03;;;;;;;4.70;4.13;;;;;;;;;;5004939;28;20260;-40
2022/12/18 05:31:29;;;;;;;5.00;3.80;;;;;;;;;;5002902;28;20492;-39
2022/12/18 05:33:55;;;;;;;6.10;3.90;;;;;;;;;;5005026;28;20204;-38
2022/12/18 05:36:21;;;;;;;5.63;5.03;;;;;;;;;;5001232;28;20422;-40
2022/12/18 05:38:47;;;;;;;4.00;3.00;;;;;;;;;;4996957;28;20503;-39
2022/12/18 05:41:13;;;;;;;3.70;3.50;;;;;;;;;;5004555;28;20970;-41
2022/12/18 05:43:39;;;;;;;5.70;4.50;;;;;;;;;;5001754;28;20934;-41
2022/12/18 05:46:06;;;;;;;13.88;4.18;;;;;;;;;;5007752;28;20439;-39
2022/12/18 05:48:32;;;;;;;5.20;4.13;;;;;;;;;;5001576;28;20532;-40
2022/12/18 05:51:03;;;;;;;3.90;3.50;;;;;;;;;;5004532;28;20184;-40
2022/12/18 05:53:29;;;;;;;3.95;3.08;;;;;;;;;;5004253;28;20580;-40
2022/12/18 05:56:00;;;;;;;5.20;4.23;;;;;;;;;;5001467;28;20181;-41
2022/12/18 05:58:26;;;;;;;5.25;3.30;;;;;;;;;;5004828;28;20420;-40
2022/12/18 06:00:51;;;;;;;4.43;3.30;;;;;;;;;;4999914;28;20211;-42
2022/12/18 06:03:17;;;;;;;4.37;4.00;;;;;;;;;;5000839;28;20582;-39
2022/12/18 06:05:44;;;;;;;4.30;3.87;;;;;;;;;;5001378;28;20843;-39
2022/12/18 06:08:11;;;;;;;4.35;3.90;;;;;;;;;;5000650;28;20893;-39
2022/12/18 06:10:37;;;;;;;4.78;4.00;;;;;;;;;;5000897;28;20181;-39
2022/12/18 06:13:03;;;;;;;4.20;3.80;;;;;;;;;;5006200;28;20737;-39
2022/12/18 06:15:29;;;;;;;5.90;3.35;;;;;;;;;;5003879;28;20177;-39
2022/12/18 06:17:55;;;;;;;4.23;3.73;;;;;;;;;;4998258;28;20550;-40
2022/12/18 06:20:21;;;;;;;4.03;3.70;;;;;;;;;;4998562;28;20961;-39
2022/12/18 06:22:47;;;;;;;6.03;3.55;;;;;;;;;;5002064;28;20843;-40
2022/12/18 06:25:13;;;;;;;5.73;3.87;;;;;;;;;;5003884;28;20160;-40
2022/12/18 06:27:39;;;;;;;3.13;2.93;;;;;;;;;;5001164;28;20775;-39
2022/12/18 06:30:05;;;;;;;4.80;4.30;;;;;;;;;;5003954;28;20409;-40
2022/12/18 06:32:31;;;;;;;4.70;4.30;;;;;;;;;;5002404;28;20423;-39
2022/12/18 06:34:57;;;;;;;4.57;3.95;;;;;;;;;;4996467;28;20555;-40
2022/12/18 06:37:25;;;;;;;4.20;3.85;;;;;;;;;;5003587;28;20173;-39
2022/12/18 06:39:51;;;;;;;5.78;3.30;;;;;;;;;;5001271;28;20654;-40
2022/12/18 06:42:17;;;;;;;3.73;3.53;;;;;;;;;;5002096;28;20192;-39
2022/12/18 06:44:43;;;;;;;4.20;3.33;;;;;;;;;;5001560;28;20408;-39
2022/12/18 06:47:09;;;;;;;3.72;3.30;;;;;;;;;;5001479;28;20408;-40
2022/12/18 06:49:35;;;;;;;6.60;3.80;;;;;;;;;;5001171;28;20172;-40
2022/12/18 06:52:01;;;;;;;7.10;4.67;;;;;;;;;;5000602;28;20936;-41
2022/12/18 06:54:27;;;;;;;5.17;3.83;;;;;;;;;;5004716;28;20968;-40
2022/12/18 06:56:56;;;;;;;4.43;4.07;;;;;;;;;;4999454;28;20910;-39
2022/12/18 06:59:22;;;;;;;3.95;3.55;;;;;;;;;;4999970;28;20798;-40
2022/12/18 07:01:48;;;;;;;3.83;3.53;;;;;;;;;;5000548;28;20200;-41
2022/12/18 07:04:14;;;;;;;5.90;4.17;;;;;;;;;;4999464;28;20199;-41
2022/12/18 07:06:40;;;;;;;3.97;3.63;;;;;;;;;;4999793;28;20512;-41
2022/12/18 07:09:06;;;;;;;5.47;4.10;;;;;;;;;;5004681;28;20408;-41
2022/12/18 07:11:34;;;;;;;4.33;3.93;;;;;;;;;;5005167;28;20407;-41
2022/12/18 07:14:01;;;;;;;8.65;5.28;;;;;;;;;;4993305;28;20517;-41
2022/12/18 07:16:28;;;;;;;5.18;4.68;;;;;;;;;;5000845;28;20173;-41
2022/12/18 07:18:57;;;;;;;5.45;4.00;;;;;;;;;;5006081;28;20272;-41
2022/12/18 07:21:24;;;;;;;10.18;5.13;;;;;;;;;;5006712;28;20200;-41
2022/12/18 07:23:50;;;;;;;9.05;4.80;;;;;;;;;;5005784;28;20568;-42
2022/12/18 07:26:17;;;;;;;6.43;4.60;;;;;;;;;;5005786;28;20264;-42
2022/12/18 07:28:43;;;;;;;7.75;4.97;;;;;;;;;;5006563;28;20975;-41
2022/12/18 07:31:16;;;;;;;9.73;5.07;;;;;;;;;;5001495;28;20697;-41
2022/12/18 07:33:42;;;;;;;8.02;4.97;;;;;;;;;;5006031;28;20682;-41
2022/12/18 07:36:08;;;;;;;5.65;5.05;;;;;;;;;;5005729;28;20184;-41
2022/12/18 07:38:35;;;;;;;5.78;5.18;;;;;;;;;;5003766;28;20211;-41
2022/12/18 07:41:01;;;;;;;4.45;4.05;;;;;;;;;;5006491;28;20229;-41
2022/12/18 07:43:27;;;;;;;6.75;4.45;;;;;;;;;;5003643;28;20193;-42
2022/12/18 07:45:53;;;;;;;5.45;5.00;;;;;;;;;;5004587;28;20263;-41
2022/12/18 07:48:19;;;;;;;5.63;4.17;;;;;;;;;;5003236;28;20181;-42
2022/12/18 07:50:45;;;;;;;5.30;4.17;;;;;;;;;;5009390;28;20419;-42
2022/12/18 07:53:11;;;;;;;7.40;4.60;;;;;;;;;;5004589;28;20512;-41
2022/12/18 07:55:37;;;;;;;5.37;4.93;;;;;;;;;;5001498;28;20791;-42
2022/12/18 07:58:04;;;;;;;5.47;4.73;;;;;;;;;;5004124;28;20915;-41
2022/12/18 08:00:30;;;;;;;5.35;4.05;;;;;;;;;;5003177;28;20946;-42
2022/12/18 08:02:56;;;;;;;4.50;3.85;;;;;;;;;;5005859;28;20192;-41
2022/12/18 08:05:22;;;;;;;4.97;4.47;;;;;;;;;;5006239;28;20259;-43
2022/12/18 08:07:48;;;;;;;4.90;3.97;;;;;;;;;;5007435;28;20164;-41
2022/12/18 08:10:14;;;;;;;4.13;3.47;;;;;;;;;;5003477;28;20495;-41
2022/12/18 08:12:40;;;;;;;6.50;4.20;;;;;;;;;;4999684;28;20279;-41
2022/12/18 08:15:06;;;;;;;8.30;4.88;;;;;;;;;;5006277;28;20773;-41
2022/12/18 08:17:32;;;;;;;6.22;4.30;;;;;;;;;;5004960;28;20180;-39
2022/12/18 08:19:58;;;;;;;4.73;4.30;;;;;;;;;;5003176;28;20574;-39
2022/12/18 08:22:24;;;;;;;7.70;4.60;;;;;;;;;;5000108;28;20895;-39
2022/12/18 08:24:50;;;;;;;7.05;4.40;;;;;;;;;;5005801;28;20416;-40
2022/12/18 08:27:16;;;;;;;4.40;3.67;;;;;;;;;;5001461;28;20180;-40
2022/12/18 08:29:42;;;;;;;5.53;4.33;;;;;;;;;;5005053;28;20447;-40
2022/12/18 08:32:08;;;;;;;5.63;4.17;;;;;;;;;;5005267;28;20901;-40
2022/12/18 08:34:34;;;;;;;5.43;3.73;;;;;;;;;;5001539;28;20435;-41
2022/12/18 08:37:00;;;;;;;5.37;3.90;;;;;;;;;;5005451;28;20415;-40
2022/12/18 08:39:26;;;;;;;6.43;3.92;;;;;;;;;;5002643;28;20786;-39
2022/12/18 08:44:37;;;;;;;4.82;3.70;;;;;;;;;;5002297;28;20406;-41
2022/12/18 08:47:03;;;;;;;5.10;4.40;;;;;;;;;;5002054;28;20177;-39
2022/12/18 08:49:29;;;;;;;5.85;3.80;;;;;;;;;;5006387;28;20482;-40
2022/12/18 08:51:57;;;;;;;7.20;3.80;;;;;;;;;;5000864;28;20185;-39
2022/12/18 08:54:23;;;;;;;5.60;4.03;;;;;;;;;;5000770;28;20451;-40
2022/12/18 08:56:52;;;;;;;6.40;3.97;;;;;;;;;;5002136;28;20605;-40
2022/12/18 08:59:19;;;;;;;5.70;4.47;;;;;;;;;;5002085;28;20668;-41
2022/12/18 09:01:45;;;;;;;4.00;3.28;;;;;;;;;;5003154;28;20209;-40
2022/12/18 09:04:11;;;;;;;3.45;2.97;;;;;;;;;;5005465;28;20271;-40
2022/12/18 09:06:37;;;;;;;4.03;3.10;;;;;;;;;;5005260;28;20618;-40
2022/12/18 09:09:04;;;;;;;4.18;3.80;;;;;;;;;;5002626;28;20603;-40
2022/12/18 09:11:31;;;;;;;3.95;2.90;;;;;;;;;;5008380;28;20169;-42
2022/12/18 09:13:57;;;;;;;4.35;2.92;;;;;;;;;;5004437;28;20242;-43
2022/12/18 09:16:24;;;;;;;2.65;2.45;;;;;;;;;;5003311;28;20663;-45
2022/12/18 09:18:50;;;;;;;3.80;3.40;;;;;;;;;;5005382;28;20246;-43
2022/12/18 09:21:17;;;;;;;2.93;2.57;;;;;;;;;;5001125;28;20208;-42
2022/12/18 09:23:43;;;;;;;3.05;2.78;;;;;;;;;;4997352;28;20440;-43
2022/12/18 09:26:09;;;;;;;3.43;3.13;;;;;;;;;;5004734;28;20218;-42
2022/12/18 09:28:35;;;;;;;3.93;3.30;;;;;;;;;;5002378;28;20918;-43
2022/12/18 09:31:05;;;;;;;4.13;3.73;;;;;;;;;;5005397;28;20752;-42
2022/12/18 09:33:31;;;;;;;3.47;3.17;;;;;;;;;;4996772;28;20457;-42
2022/12/18 09:35:57;;;;;;;3.90;3.00;;;;;;;;;;5003534;28;20213;-44
2022/12/18 09:38:23;;;;;;;3.53;2.93;;;;;;;;;;5015331;28;20419;-43
2022/12/18 09:40:51;;;;;;;3.60;3.30;;;;;;;;;;5002767;28;20459;-46
2022/12/18 09:43:27;;;;;;;2.90;2.70;;;;;;;;;;5004273;28;20942;-44
2022/12/18 09:45:55;;;;;;;6.80;3.07;;;;;;;;;;5000152;28;20178;-43
2022/12/18 09:48:24;;;;;;;5.00;3.03;;;;;;;;;;5000605;28;20759;-43
2022/12/18 09:50:50;;;;;;;6.00;3.60;;;;;;;;;;5001677;28;20831;-44
2022/12/18 09:53:19;;;;;;;4.60;3.60;;;;;;;;;;5001061;28;20452;-43
2022/12/18 09:55:48;;;;;;;3.83;3.40;;;;;;;;;;5002282;28;20424;-42
2022/12/18 09:58:21;;;;;;;3.53;3.23;;;;;;;;;;5004473;28;20173;-43
2022/12/18 10:00:47;;;;;;;3.60;2.93;;;;;;;;;;5004985;28;20459;-43
2022/12/18 10:03:14;;;;;;;5.60;4.20;;;;;;;;;;5000047;28;20952;-43
2022/12/18 10:05:59;;;;;;;4.10;2.80;;;;;;;;;;4996633;28;20415;-43
2022/12/18 10:08:34;;;;;;;7.85;3.60;;;;;;;;;;5004164;28;20489;-44
2022/12/18 10:11:19;;;;;;;4.40;3.20;;;;;;;;;;5001548;28;20662;-42
2022/12/18 10:13:50;;;;;;;3.20;2.88;;;;;;;;;;4999897;28;20215;-45
2022/12/18 10:16:33;;;;;;;4.45;3.35;;;;;;;;;;5000679;28;20173;-43
2022/12/18 10:19:17;;;;;;;4.53;3.50;;;;;;;;;;5001339;28;20246;-42
2022/12/18 10:21:49;;;;;;;6.15;4.05;;;;;;;;;;5001808;28;20290;-42
2022/12/18 10:24:27;;;;;;;4.38;3.53;;;;;;;;;;5003961;28;20764;-43
2022/12/18 10:26:56;;;;;;;3.83;3.35;;;;;;;;;;5001659;28;20185;-43
2022/12/18 10:29:22;;;;;;;4.03;3.22;;;;;;;;;;5006251;28;20224;-42
2022/12/18 10:31:48;;;;;;;4.22;3.40;;;;;;;;;;5002832;28;20589;-42
2022/12/18 10:34:14;;;;;;;3.40;3.10;;;;;;;;;;4998437;28;20203;-43
2022/12/18 10:36:40;;;;;;;3.22;2.90;;;;;;;;;;5002994;28;20494;-43
2022/12/18 10:39:24;;;;;;;4.45;3.35;;;;;;;;;;5002279;28;20587;-42
2022/12/18 10:41:51;;;;;;;4.65;3.80;;;;;;;;;;4999994;28;20200;-42
2022/12/18 10:44:27;;;;;;;3.45;3.00;;;;;;;;;;5000369;28;20265;-44
2022/12/18 10:47:03;;;;;;;7.72;2.90;;;;;;;;;;5000737;28;20185;-42
2022/12/18 10:49:30;;;;;;;4.82;3.05;;;;;;;;;;5000472;28;20596;-42
2022/12/18 10:52:05;;;;;;;6.93;3.15;;;;;;;;;;5002518;28;20223;-43
2022/12/18 10:54:32;;;;;;;3.10;2.67;;;;;;;;;;5001553;28;20286;-43
2022/12/18 10:57:17;;;;;;;3.22;2.88;;;;;;;;;;5004005;28;20187;-45
2022/12/18 10:59:54;;;;;;;4.68;3.28;;;;;;;;;;5002608;28;20267;-43
2022/12/18 11:02:26;;;;;;;3.47;2.85;;;;;;;;;;4998770;28;20220;-43
2022/12/18 11:04:52;;;;;;;3.45;2.92;;;;;;;;;;5001100;28;20787;-43
2022/12/18 11:07:19;;;;;;;2.40;2.20;;;;;;;;;;5003345;28;20172;-43
2022/12/18 11:10:02;;;;;;;3.10;2.80;;;;;;;;;;4997801;28;20492;-43
2022/12/18 11:12:29;;;;;;;2.80;2.50;;;;;;;;;;4997793;28;20933;-43
2022/12/18 11:14:59;;;;;;;3.43;2.80;;;;;;;;;;4987821;28;20754;-43
2022/12/18 11:17:32;;;;;;;2.90;2.70;;;;;;;;;;4998438;28;20478;-44
2022/12/18 11:20:15;;;;;;;2.70;2.50;;;;;;;;;;5007484;28;20906;-45
2022/12/18 11:22:41;;;;;;;4.00;3.30;;;;;;;;;;5000508;28;20209;-47
2022/12/18 11:25:18;;;;;;;4.90;3.27;;;;;;;;;;5002687;28;20396;-45
2022/12/18 11:27:51;;;;;;;5.05;2.83;;;;;;;;;;5002099;28;20781;-47
2022/12/18 11:30:20;;;;;;;3.50;3.20;;;;;;;;;;4998296;28;20204;-45
2022/12/18 11:32:48;;;;;;;3.13;2.80;;;;;;;;;;5001722;28;20572;-46
2022/12/18 11:35:20;;;;;;;3.25;2.95;;;;;;;;;;5002622;28;20204;-47
2022/12/18 11:37:49;;;;;;;3.95;3.20;;;;;;;;;;4999045;28;20609;-46
2022/12/18 11:40:17;;;;;;;4.10;2.88;;;;;;;;;;4997959;28;20185;-47
2022/12/18 11:43:02;;;;;;;3.83;2.90;;;;;;;;;;4991676;28;20280;-46
2022/12/18 11:45:30;;;;;;;4.88;3.08;;;;;;;;;;4991871;28;20670;-46
2022/12/18 11:47:59;;;;;;;3.13;2.92;;;;;;;;;;4991549;28;20200;-46
2022/12/18 11:50:27;;;;;;;3.70;3.40;;;;;;;;;;5008806;28;20172;-45
2022/12/18 11:52:53;;;;;;;3.45;3.15;;;;;;;;;;4996912;28;20319;-45
2022/12/18 11:55:39;;;;;;;3.30;2.87;;;;;;;;;;4991559;28;20260;-45
2022/12/18 11:58:11;;;;;;;4.05;2.90;;;;;;;;;;4993835;28;20794;-44
2022/12/18 12:00:41;;;;;;;4.30;3.30;;;;;;;;;;4995101;28;20332;-44
2022/12/18 12:03:26;;;;;;;2.90;2.60;;;;;;;;;;4994842;28;20212;-45
2022/12/18 12:05:55;;;;;;;4.00;3.25;;;;;;;;;;4994966;28;20662;-44
2022/12/18 12:08:35;;;;;;;4.72;3.45;;;;;;;;;;4994804;28;20189;-44
2022/12/18 12:11:07;;;;;;;3.70;3.33;;;;;;;;;;4996256;28;20187;-45
2022/12/18 12:13:42;;;;;;;4.25;3.85;;;;;;;;;;4995147;28;20227;-45
2022/12/18 12:16:11;;;;;;;6.97;3.42;;;;;;;;;;4994783;28;20173;-44
2022/12/18 12:18:52;;;;;;;3.70;3.33;;;;;;;;;;4976415;28;20186;-44
2022/12/18 12:21:30;;;;;;;3.17;2.88;;;;;;;;;;4992907;28;20201;-45
2022/12/18 12:24:08;;;;;;;4.72;3.55;;;;;;;;;;4994463;28;20212;-43
2022/12/18 12:26:54;;;;;;;3.88;3.47;;;;;;;;;;4994468;28;20214;-44
2022/12/18 12:29:30;;;;;;;5.10;4.00;;;;;;;;;;4994585;28;20183;-44
2022/12/18 12:31:59;;;;;;;4.28;3.65;;;;;;;;;;4994631;28;20188;-44
2022/12/18 12:34:37;;;;;;;5.45;4.10;;;;;;;;;;4994231;28;20201;-44
2022/12/18 12:37:06;;;;;;;4.07;3.53;;;;;;;;;;4994337;28;20200;-43
2022/12/18 12:39:35;;;;;;;4.00;3.42;;;;;;;;;;4994702;28;20181;-44
2022/12/18 12:44:50;;;;;;;4.03;3.72;;;;;;;;;;4994341;28;20276;-44
2022/12/18 12:47:22;;;;;;;4.65;3.75;;;;;;;;;;4994007;28;20188;-45
2022/12/18 12:49:48;;;;;;;7.07;3.28;;;;;;;;;;5002362;28;20235;-44
2022/12/18 12:52:37;;;;;;;5.32;3.90;;;;;;;;;;5002044;28;20272;-44
2022/12/18 12:55:08;;;;;;;5.53;4.40;;;;;;;;;;4999103;28;20201;-44
2022/12/18 12:57:38;;;;;;;7.55;4.97;;;;;;;;;;5001631;28;20678;-44
2022/12/18 13:00:04;;;;;;;7.03;4.60;;;;;;;;;;4997225;28;20181;-44
2022/12/18 13:02:47;;;;;;;8.43;5.17;;;;;;;;;;5005714;28;20204;-44
2022/12/18 13:05:19;;;;;;;6.05;4.93;;;;;;;;;;4995443;28;20414;-44
2022/12/18 13:07:47;;;;;;;7.00;4.78;;;;;;;;;;4997555;28;20180;-44
2022/12/18 13:10:19;;;;;;;6.18;4.38;;;;;;;;;;5004001;28;20551;-44
2022/12/18 13:13:03;;;;;;;6.20;4.40;;;;;;;;;;5004079;28;20185;-44
2022/12/18 13:15:32;;;;;;;6.10;5.18;;;;;;;;;;5002383;28;20260;-43
2022/12/18 13:18:10;;;;;;;4.80;4.30;;;;;;;;;;5004154;28;20211;-45
2022/12/18 13:20:36;;;;;;;6.38;4.78;;;;;;;;;;5001879;28;20172;-44
2022/12/18 13:23:20;;;;;;;6.17;4.80;;;;;;;;;;5002781;28;20189;-44
2022/12/18 13:25:46;;;;;;;6.05;4.43;;;;;;;;;;5003002;28;20415;-44
2022/12/18 13:28:16;;;;;;;9.65;5.75;;;;;;;;;;5006059;28;20180;-44
2022/12/18 13:30:47;;;;;;;11.75;5.32;;;;;;;;;;5006093;28;20551;-44
2022/12/18 13:33:19;;;;;;;14.73;5.63;;;;;;;;;;5001439;28;20419;-45
2022/12/18 13:35:51;;;;;;;9.13;6.90;;;;;;;;;;4998046;28;20173;-44
2022/12/18 13:38:32;;;;;;;9.18;6.07;;;;;;;;;;5004645;28;20191;-44
2022/12/18 13:40:58;;;;;;;12.27;6.82;;;;;;;;;;5002683;28;20206;-44
2022/12/18 13:43:28;;;;;;;8.80;5.80;;;;;;;;;;5002728;28;20594;-44
2022/12/18 13:46:13;;;;;;;11.25;6.45;;;;;;;;;;5003731;28;20173;-45
2022/12/18 13:48:40;;;;;;;8.40;5.95;;;;;;;;;;4998929;28;20180;-44
2022/12/18 13:51:10;;;;;;;8.48;5.97;;;;;;;;;;5001874;28;20267;-44
2022/12/18 13:53:43;;;;;;;7.45;5.45;;;;;;;;;;5000963;28;20216;-43
2022/12/18 13:56:09;;;;;;;10.25;6.43;;;;;;;;;;5006055;28;20172;-44
2022/12/18 13:58:35;;;;;;;8.77;6.03;;;;;;;;;;5005687;28;20215;-45
2022/12/18 14:01:04;;;;;;;7.60;6.00;;;;;;;;;;4999518;28;20200;-45
2022/12/18 14:03:30;;;;;;;10.10;8.30;;;;;;;;;;4998455;28;20456;-45
2022/12/18 14:05:59;;;;;;;10.60;7.03;;;;;;;;;;5003903;28;20574;-44
2022/12/18 14:08:26;;;;;;;13.48;6.32;;;;;;;;;;5003794;28;20541;-44
2022/12/18 14:10:52;;;;;;;13.23;8.13;;;;;;;;;;5003067;28;20713;-44
2022/12/18 14:13:24;;;;;;;16.73;7.25;;;;;;;;;;5003064;28;20241;-44
2022/12/18 14:15:51;;;;;;;12.10;7.55;;;;;;;;;;5004571;28;20177;-45
2022/12/18 14:18:22;;;;;;;7.47;6.53;;;;;;;;;;4999598;28;20184;-45
2022/12/18 14:20:48;;;;;;;11.55;6.80;;;;;;;;;;5001918;28;20196;-46
2022/12/18 14:23:29;;;;;;;11.15;7.22;;;;;;;;;;5004249;28;20203;-45
2022/12/18 14:25:55;;;;;;;11.15;6.93;;;;;;;;;;4996432;28;20212;-44
2022/12/18 14:28:22;;;;;;;10.00;7.20;;;;;;;;;;4992409;28;20209;-45
2022/12/18 14:30:48;;;;;;;10.73;8.02;;;;;;;;;;4992471;28;20407;-44
2022/12/18 14:33:19;;;;;;;9.45;7.03;;;;;;;;;;4992324;28;20271;-46
2022/12/18 14:35:58;;;;;;;9.02;6.40;;;;;;;;;;4992040;28;20179;-44
2022/12/18 14:38:31;;;;;;;12.57;7.38;;;;;;;;;;4992316;28;20180;-45
2022/12/18 14:41:02;;;;;;;10.98;7.70;;;;;;;;;;4992255;28;20204;-45
2022/12/18 14:43:29;;;;;;;10.55;7.28;;;;;;;;;;4992200;28;20741;-45
2022/12/18 14:45:56;;;;;;;11.30;7.50;;;;;;;;;;5001292;28;20176;-45
2022/12/18 14:48:25;;;;;;;10.57;6.43;;;;;;;;;;5005549;28;20647;-45
2022/12/18 14:50:59;;;;;;;11.55;6.95;;;;;;;;;;4992273;28;20177;-44
2022/12/18 14:53:32;;;;;;;13.55;7.70;;;;;;;;;;4992125;28;20216;-45
2022/12/18 14:55:58;;;;;;;15.63;7.35;;;;;;;;;;4991881;28;20215;-44
2022/12/18 14:58:24;;;;;;;9.82;6.63;;;;;;;;;;4992018;28;20184;-45
2022/12/18 15:00:50;;;;;;;9.52;6.88;;;;;;;;;;4993724;28;20210;-45
2022/12/18 15:03:19;;;;;;;9.75;7.28;;;;;;;;;;5003500;28;20225;-44